sensor_id;sensor_type;location;lat;lon;timestamp;temperature;humidity
1025;DHT22;501;48.214;11.350;2023-03-03T00:01:28;1.80;53.40
1025;DHT22;501;48.214;11.350;2023-03-03T00:03:54;1.80;53.60
1025;DHT22;501;48.214;11.350;2023-03-03T00:06:20;1.80;53.30
1025;DHT22;501;48.214;11.350;2023-03-03T00:08:46;1.80;53.40
1025;DHT22;501;48.214;11.350;2023-03-03T00:11:12;1.80;53.20
1025;DHT22;501;48.214;11.350;2023-03-03T00:13:50;1.80;53.10
1025;DHT22;501;48.214;11.350;2023-03-03T00:16:34;1.80;53.30
1025;DHT22;501;48.214;11.350;2023-03-03T00:19:01;1.80;54.30
1025;DHT22;501;48.214;11.350;2023-03-03T00:22:00;1.80;53.40
1025;DHT22;501;48.214;11.350;2023-03-03T00:24:24;1.80;53.20
1025;DHT22;501;48.214;11.350;2023-03-03T00:26:56;1.70;52.80
1025;DHT22;501;48.214;11.350;2023-03-03T00:29:35;1.80;52.70
1025;DHT22;501;48.214;11.350;2023-03-03T00:32:35;1.80;52.30
1025;DHT22;501;48.214;11.350;2023-03-03T00:35:29;1.70;52.40
1025;DHT22;501;48.214;11.350;2023-03-03T00:38:01;1.70;52.40
1025;DHT22;501;48.214;11.350;2023-03-03T00:40:36;1.70;52.20
1025;DHT22;501;48.214;11.350;2023-03-03T00:43:17;1.70;51.70
1025;DHT22;501;48.214;11.350;2023-03-03T00:45:50;1.70;52.10
1025;DHT22;501;48.214;11.350;2023-03-03T00:51:01;1.70;52.10
1025;DHT22;501;48.214;11.350;2023-03-03T00:53:32;1.70;52.10
1025;DHT22;501;48.214;11.350;2023-03-03T00:55:58;1.70;51.50
1025;DHT22;501;48.214;11.350;2023-03-03T00:58:24;1.70;51.50
1025;DHT22;501;48.214;11.350;2023-03-03T01:00:53;1.60;51.00
1025;DHT22;501;48.214;11.350;2023-03-03T01:03:24;1.70;51.00
1025;DHT22;501;48.214;11.350;2023-03-03T01:05:51;1.60;51.40
1025;DHT22;501;48.214;11.350;2023-03-03T01:08:17;1.60;51.40
1025;DHT22;501;48.214;11.350;2023-03-03T01:10:51;1.60;51.40
1025;DHT22;501;48.214;11.350;2023-03-03T01:13:24;1.60;51.40
1025;DHT22;501;48.214;11.350;2023-03-03T01:15:51;1.60;51.40
1025;DHT22;501;48.214;11.350;2023-03-03T01:18:17;1.60;51.40
1025;DHT22;501;48.214;11.350;2023-03-03T01:20:42;1.60;51.40
1025;DHT22;501;48.214;11.350;2023-03-03T01:23:08;1.60;51.40
1025;DHT22;501;48.214;11.350;2023-03-03T01:25:35;1.60;51.40
1025;DHT22;501;48.214;11.350;2023-03-03T01:28:01;1.60;51.60
1025;DHT22;501;48.214;11.350;2023-03-03T01:30:27;1.60;51.40
1025;DHT22;501;48.214;11.350;2023-03-03T01:32:53;1.60;51.40
1025;DHT22;501;48.214;11.350;2023-03-03T01:35:19;1.60;51.40
1025;DHT22;501;48.214;11.350;2023-03-03T01:37:45;1.60;51.40
1025;DHT22;501;48.214;11.350;2023-03-03T01:40:22;1.50;52.10
1025;DHT22;501;48.214;11.350;2023-03-03T01:42:48;1.50;51.30
1025;DHT22;501;48.214;11.350;2023-03-03T01:45:18;1.50;51.30
1025;DHT22;501;48.214;11.350;2023-03-03T01:48:05;1.50;51.90
1025;DHT22;501;48.214;11.350;2023-03-03T01:53:15;1.50;53.00
1025;DHT22;501;48.214;11.350;2023-03-03T01:55:42;1.40;53.50
1025;DHT22;501;48.214;11.350;2023-03-03T02:00:40;1.40;54.20
1025;DHT22;501;48.214;11.350;2023-03-03T02:03:06;1.40;54.10
1025;DHT22;501;48.214;11.350;2023-03-03T02:05:34;1.40;53.40
1025;DHT22;501;48.214;11.350;2023-03-03T02:08:01;1.40;53.20
1025;DHT22;501;48.214;11.350;2023-03-03T02:10:27;1.40;52.70
1025;DHT22;501;48.214;11.350;2023-03-03T02:12:57;1.40;52.10
1025;DHT22;501;48.214;11.350;2023-03-03T02:15:25;1.40;52.60
1025;DHT22;501;48.214;11.350;2023-03-03T02:18:07;1.40;52.90
1025;DHT22;501;48.214;11.350;2023-03-03T02:26:14;1.40;54.30
1025;DHT22;501;48.214;11.350;2023-03-03T02:28:40;1.40;56.30
1025;DHT22;501;48.214;11.350;2023-03-03T02:31:14;1.30;57.40
1025;DHT22;501;48.214;11.350;2023-03-03T02:33:42;1.30;59.20
1025;DHT22;501;48.214;11.350;2023-03-03T02:36:32;1.30;58.20
1025;DHT22;501;48.214;11.350;2023-03-03T02:41:38;1.30;54.90
1025;DHT22;501;48.214;11.350;2023-03-03T02:44:07;1.30;53.90
1025;DHT22;501;48.214;11.350;2023-03-03T02:46:45;1.30;53.20
1025;DHT22;501;48.214;11.350;2023-03-03T02:49:14;1.30;52.80
1025;DHT22;501;48.214;11.350;2023-03-03T02:51:39;1.30;51.90
1025;DHT22;501;48.214;11.350;2023-03-03T02:54:06;1.30;51.70
1025;DHT22;501;48.214;11.350;2023-03-03T02:56:32;1.30;51.70
1025;DHT22;501;48.214;11.350;2023-03-03T02:58:58;1.30;51.20
1025;DHT22;501;48.214;11.350;2023-03-03T03:01:23;1.30;51.10
1025;DHT22;501;48.214;11.350;2023-03-03T03:03:49;1.30;51.10
1025;DHT22;501;48.214;11.350;2023-03-03T03:06:15;1.30;51.10
1025;DHT22;501;48.214;11.350;2023-03-03T03:08:40;1.30;51.20
1025;DHT22;501;48.214;11.350;2023-03-03T03:11:06;1.30;51.80
1025;DHT22;501;48.214;11.350;2023-03-03T03:13:32;1.30;51.20
1025;DHT22;501;48.214;11.350;2023-03-03T03:15:58;1.30;51.60
1025;DHT22;501;48.214;11.350;2023-03-03T03:18:25;1.30;52.30
1025;DHT22;501;48.214;11.350;2023-03-03T03:20:51;1.30;52.70
1025;DHT22;501;48.214;11.350;2023-03-03T03:23:17;1.30;52.00
1025;DHT22;501;48.214;11.350;2023-03-03T03:25:43;1.30;51.70
1025;DHT22;501;48.214;11.350;2023-03-03T03:28:12;1.30;52.20
1025;DHT22;501;48.214;11.350;2023-03-03T03:30:39;1.30;53.30
1025;DHT22;501;48.214;11.350;2023-03-03T03:33:05;1.30;54.60
1025;DHT22;501;48.214;11.350;2023-03-03T03:35:32;1.40;54.80
1025;DHT22;501;48.214;11.350;2023-03-03T03:37:58;1.40;55.00
1025;DHT22;501;48.214;11.350;2023-03-03T03:40:23;1.40;55.30
1025;DHT22;501;48.214;11.350;2023-03-03T03:42:51;1.40;55.50
1025;DHT22;501;48.214;11.350;2023-03-03T03:45:17;1.50;55.80
1025;DHT22;501;48.214;11.350;2023-03-03T03:47:43;1.50;56.10
1025;DHT22;501;48.214;11.350;2023-03-03T03:50:09;1.50;56.50
1025;DHT22;501;48.214;11.350;2023-03-03T03:52:34;1.60;56.70
1025;DHT22;501;48.214;11.350;2023-03-03T03:55:00;1.60;56.90
1025;DHT22;501;48.214;11.350;2023-03-03T03:57:26;1.60;57.40
1025;DHT22;501;48.214;11.350;2023-03-03T03:59:52;1.70;57.50
1025;DHT22;501;48.214;11.350;2023-03-03T04:02:17;1.70;57.60
1025;DHT22;501;48.214;11.350;2023-03-03T04:04:43;1.70;57.80
1025;DHT22;501;48.214;11.350;2023-03-03T04:07:09;1.70;58.20
1025;DHT22;501;48.214;11.350;2023-03-03T04:09:34;1.80;58.70
1025;DHT22;501;48.214;11.350;2023-03-03T04:12:00;1.80;59.00
1025;DHT22;501;48.214;11.350;2023-03-03T04:14:26;1.80;59.90
1025;DHT22;501;48.214;11.350;2023-03-03T04:16:51;1.90;59.90
1025;DHT22;501;48.214;11.350;2023-03-03T04:19:17;1.90;59.90
1025;DHT22;501;48.214;11.350;2023-03-03T04:21:42;1.90;60.00
1025;DHT22;501;48.214;11.350;2023-03-03T04:24:08;1.90;60.00
1025;DHT22;501;48.214;11.350;2023-03-03T04:26:34;1.90;60.60
1025;DHT22;501;48.214;11.350;2023-03-03T04:28:59;2.00;60.10
1025;DHT22;501;48.214;11.350;2023-03-03T04:31:26;2.00;60.10
1025;DHT22;501;48.214;11.350;2023-03-03T04:33:51;2.00;60.10
1025;DHT22;501;48.214;11.350;2023-03-03T04:36:18;2.00;60.10
1025;DHT22;501;48.214;11.350;2023-03-03T04:38:44;2.00;60.10
1025;DHT22;501;48.214;11.350;2023-03-03T04:41:10;2.00;60.10
1025;DHT22;501;48.214;11.350;2023-03-03T04:43:35;2.10;60.10
1025;DHT22;501;48.214;11.350;2023-03-03T04:46:01;2.10;60.10
1025;DHT22;501;48.214;11.350;2023-03-03T04:48:27;2.10;60.10
1025;DHT22;501;48.214;11.350;2023-03-03T04:50:53;2.10;60.20
1025;DHT22;501;48.214;11.350;2023-03-03T04:53:19;2.10;60.20
1025;DHT22;501;48.214;11.350;2023-03-03T04:55:44;2.10;60.20
1025;DHT22;501;48.214;11.350;2023-03-03T04:58:10;2.10;60.20
1025;DHT22;501;48.214;11.350;2023-03-03T05:00:36;2.10;60.20
1025;DHT22;501;48.214;11.350;2023-03-03T05:03:02;2.10;60.20
1025;DHT22;501;48.214;11.350;2023-03-03T05:05:28;2.10;60.20
1025;DHT22;501;48.214;11.350;2023-03-03T05:07:53;2.10;60.80
1025;DHT22;501;48.214;11.350;2023-03-03T05:10:19;2.20;60.20
1025;DHT22;501;48.214;11.350;2023-03-03T05:12:45;2.20;60.20
1025;DHT22;501;48.214;11.350;2023-03-03T05:15:11;2.20;60.20
1025;DHT22;501;48.214;11.350;2023-03-03T05:17:37;2.20;60.20
1025;DHT22;501;48.214;11.350;2023-03-03T05:20:04;2.20;60.20
1025;DHT22;501;48.214;11.350;2023-03-03T05:22:33;2.20;60.20
1025;DHT22;501;48.214;11.350;2023-03-03T05:24:58;2.20;60.20
1025;DHT22;501;48.214;11.350;2023-03-03T05:27:24;2.20;60.20
1025;DHT22;501;48.214;11.350;2023-03-03T05:29:49;2.20;60.20
1025;DHT22;501;48.214;11.350;2023-03-03T05:32:15;2.30;60.30
1025;DHT22;501;48.214;11.350;2023-03-03T05:34:41;2.30;60.30
1025;DHT22;501;48.214;11.350;2023-03-03T05:37:07;2.30;60.30
1025;DHT22;501;48.214;11.350;2023-03-03T05:39:33;2.30;60.30
1025;DHT22;501;48.214;11.350;2023-03-03T05:41:59;2.30;60.30
1025;DHT22;501;48.214;11.350;2023-03-03T05:44:26;2.30;60.30
1025;DHT22;501;48.214;11.350;2023-03-03T05:46:51;2.30;60.30
1025;DHT22;501;48.214;11.350;2023-03-03T05:49:17;2.30;60.30
1025;DHT22;501;48.214;11.350;2023-03-03T05:51:43;2.40;60.40
1025;DHT22;501;48.214;11.350;2023-03-03T05:54:08;2.40;60.40
1025;DHT22;501;48.214;11.350;2023-03-03T05:56:34;2.40;60.40
1025;DHT22;501;48.214;11.350;2023-03-03T05:59:00;2.40;60.40
1025;DHT22;501;48.214;11.350;2023-03-03T06:01:25;2.40;60.40
1025;DHT22;501;48.214;11.350;2023-03-03T06:03:52;2.40;60.40
1025;DHT22;501;48.214;11.350;2023-03-03T06:06:18;2.40;60.40
1025;DHT22;501;48.214;11.350;2023-03-03T06:08:44;2.40;60.40
1025;DHT22;501;48.214;11.350;2023-03-03T06:11:10;2.40;60.40
1025;DHT22;501;48.214;11.350;2023-03-03T06:13:36;2.40;61.10
1025;DHT22;501;48.214;11.350;2023-03-03T06:16:02;2.50;60.50
1025;DHT22;501;48.214;11.350;2023-03-03T06:18:27;2.50;60.90
1025;DHT22;501;48.214;11.350;2023-03-03T06:20:53;2.50;60.50
1025;DHT22;501;48.214;11.350;2023-03-03T06:23:19;2.50;60.50
1025;DHT22;501;48.214;11.350;2023-03-03T06:25:45;2.50;60.50
1025;DHT22;501;48.214;11.350;2023-03-03T06:28:12;2.50;60.50
1025;DHT22;501;48.214;11.350;2023-03-03T06:30:38;2.50;60.50
1025;DHT22;501;48.214;11.350;2023-03-03T06:33:04;2.50;60.50
1025;DHT22;501;48.214;11.350;2023-03-03T06:35:29;2.50;59.80
1025;DHT22;501;48.214;11.350;2023-03-03T06:37:55;2.60;59.90
1025;DHT22;501;48.214;11.350;2023-03-03T06:40:20;2.60;59.90
1025;DHT22;501;48.214;11.350;2023-03-03T06:42:46;2.60;59.60
1025;DHT22;501;48.214;11.350;2023-03-03T06:45:12;2.60;59.60
1025;DHT22;501;48.214;11.350;2023-03-03T06:47:38;2.60;59.50
1025;DHT22;501;48.214;11.350;2023-03-03T06:50:05;2.70;59.40
1025;DHT22;501;48.214;11.350;2023-03-03T06:52:31;2.70;59.10
1025;DHT22;501;48.214;11.350;2023-03-03T06:54:58;2.70;59.20
1025;DHT22;501;48.214;11.350;2023-03-03T06:57:31;2.70;59.50
1025;DHT22;501;48.214;11.350;2023-03-03T07:02:41;2.60;59.90
1025;DHT22;501;48.214;11.350;2023-03-03T07:05:15;2.70;60.10
1025;DHT22;501;48.214;11.350;2023-03-03T07:07:42;2.70;59.70
1025;DHT22;501;48.214;11.350;2023-03-03T07:10:25;2.70;59.10
1025;DHT22;501;48.214;11.350;2023-03-03T07:12:51;2.70;59.40
1025;DHT22;501;48.214;11.350;2023-03-03T07:15:21;2.80;59.30
1025;DHT22;501;48.214;11.350;2023-03-03T07:17:50;2.80;59.00
1025;DHT22;501;48.214;11.350;2023-03-03T07:20:22;2.80;58.90
1025;DHT22;501;48.214;11.350;2023-03-03T07:22:48;2.80;58.50
1025;DHT22;501;48.214;11.350;2023-03-03T07:27:52;2.90;58.00
1025;DHT22;501;48.214;11.350;2023-03-03T07:30:28;2.90;58.10
1025;DHT22;501;48.214;11.350;2023-03-03T07:32:55;2.90;58.50
1025;DHT22;501;48.214;11.350;2023-03-03T07:37:59;3.00;58.10
1025;DHT22;501;48.214;11.350;2023-03-03T07:42:58;3.00;56.80
1025;DHT22;501;48.214;11.350;2023-03-03T07:45:34;3.10;56.40
1025;DHT22;501;48.214;11.350;2023-03-03T07:50:35;3.10;56.50
1025;DHT22;501;48.214;11.350;2023-03-03T07:53:01;3.10;56.90
1025;DHT22;501;48.214;11.350;2023-03-03T07:55:38;3.10;56.80
1025;DHT22;501;48.214;11.350;2023-03-03T08:03:15;3.30;56.20
1025;DHT22;501;48.214;11.350;2023-03-03T08:05:43;3.30;55.70
1025;DHT22;501;48.214;11.350;2023-03-03T08:10:52;3.40;54.80
1025;DHT22;501;48.214;11.350;2023-03-03T08:13:43;3.40;55.40
1025;DHT22;501;48.214;11.350;2023-03-03T08:18:36;3.50;55.60
1025;DHT22;501;48.214;11.350;2023-03-03T08:21:10;3.50;54.90
1025;DHT22;501;48.214;11.350;2023-03-03T08:23:37;3.60;54.30
1025;DHT22;501;48.214;11.350;2023-03-03T08:26:02;3.60;52.80
1025;DHT22;501;48.214;11.350;2023-03-03T08:28:28;3.60;53.10
1025;DHT22;501;48.214;11.350;2023-03-03T08:30:53;3.60;53.60
1025;DHT22;501;48.214;11.350;2023-03-03T08:33:19;3.60;53.90
1025;DHT22;501;48.214;11.350;2023-03-03T08:35:45;3.70;53.80
1025;DHT22;501;48.214;11.350;2023-03-03T08:38:13;3.70;52.80
1025;DHT22;501;48.214;11.350;2023-03-03T08:40:41;3.80;53.20
1025;DHT22;501;48.214;11.350;2023-03-03T08:43:07;3.80;53.20
1025;DHT22;501;48.214;11.350;2023-03-03T08:45:34;3.90;52.80
1025;DHT22;501;48.214;11.350;2023-03-03T08:48:00;4.00;51.80
1025;DHT22;501;48.214;11.350;2023-03-03T08:50:27;4.00;51.30
1025;DHT22;501;48.214;11.350;2023-03-03T08:52:53;4.10;51.20
1025;DHT22;501;48.214;11.350;2023-03-03T08:55:19;4.10;50.50
1025;DHT22;501;48.214;11.350;2023-03-03T08:57:44;4.20;50.70
1025;DHT22;501;48.214;11.350;2023-03-03T09:00:13;4.20;51.00
1025;DHT22;501;48.214;11.350;2023-03-03T09:02:40;4.20;50.20
1025;DHT22;501;48.214;11.350;2023-03-03T09:05:06;4.30;50.40
1025;DHT22;501;48.214;11.350;2023-03-03T09:07:32;4.30;50.10
1025;DHT22;501;48.214;11.350;2023-03-03T09:09:57;4.40;48.70
1025;DHT22;501;48.214;11.350;2023-03-03T09:12:38;4.40;48.70
1025;DHT22;501;48.214;11.350;2023-03-03T09:15:20;4.40;49.00
1025;DHT22;501;48.214;11.350;2023-03-03T09:17:47;4.40;48.70
1025;DHT22;501;48.214;11.350;2023-03-03T09:20:33;4.50;49.10
1025;DHT22;501;48.214;11.350;2023-03-03T09:25:41;4.60;48.50
1025;DHT22;501;48.214;11.350;2023-03-03T09:28:27;4.60;49.60
1025;DHT22;501;48.214;11.350;2023-03-03T09:30:57;4.70;49.50
1025;DHT22;501;48.214;11.350;2023-03-03T09:33:26;4.70;48.90
1025;DHT22;501;48.214;11.350;2023-03-03T09:36:25;4.80;47.10
1025;DHT22;501;48.214;11.350;2023-03-03T09:38:52;4.80;46.50
1025;DHT22;501;48.214;11.350;2023-03-03T10:04:35;5.20;45.90
1025;DHT22;501;48.214;11.350;2023-03-03T10:22:50;5.30;44.60
1025;DHT22;501;48.214;11.350;2023-03-03T10:30:46;5.40;44.20
1025;DHT22;501;48.214;11.350;2023-03-03T10:38:57;5.40;44.60
1025;DHT22;501;48.214;11.350;2023-03-03T10:49:56;5.70;44.10
1025;DHT22;501;48.214;11.350;2023-03-03T10:53:15;5.80;44.30
1025;DHT22;501;48.214;11.350;2023-03-03T11:01:29;6.10;43.40
1025;DHT22;501;48.214;11.350;2023-03-03T11:04:06;6.20;42.10
1025;DHT22;501;48.214;11.350;2023-03-03T11:06:50;6.30;41.40
1025;DHT22;501;48.214;11.350;2023-03-03T11:15:12;6.20;41.10
1025;DHT22;501;48.214;11.350;2023-03-03T11:26:07;6.20;42.20
1025;DHT22;501;48.214;11.350;2023-03-03T11:34:13;6.50;41.50
1025;DHT22;501;48.214;11.350;2023-03-03T11:36:48;6.50;41.10
1025;DHT22;501;48.214;11.350;2023-03-03T11:39:25;6.50;41.30
1025;DHT22;501;48.214;11.350;2023-03-03T11:44:42;6.50;42.60
1025;DHT22;501;48.214;11.350;2023-03-03T11:47:17;6.60;41.90
1025;DHT22;501;48.214;11.350;2023-03-03T11:50:00;6.70;41.70
1025;DHT22;501;48.214;11.350;2023-03-03T11:52:47;6.80;41.60
1025;DHT22;501;48.214;11.350;2023-03-03T11:58:13;6.90;40.20
1025;DHT22;501;48.214;11.350;2023-03-03T12:12:21;7.10;40.60
1025;DHT22;501;48.214;11.350;2023-03-03T12:15:06;7.20;39.30
1025;DHT22;501;48.214;11.350;2023-03-03T12:25:44;7.70;40.20
1025;DHT22;501;48.214;11.350;2023-03-03T12:28:27;7.90;38.40
1025;DHT22;501;48.214;11.350;2023-03-03T12:34:04;8.10;37.20
1025;DHT22;501;48.214;11.350;2023-03-03T12:45:00;8.00;37.10
1025;DHT22;501;48.214;11.350;2023-03-03T12:47:49;8.00;37.00
1025;DHT22;501;48.214;11.350;2023-03-03T12:52:53;8.00;37.90
1025;DHT22;501;48.214;11.350;2023-03-03T12:58:10;8.10;36.50
1025;DHT22;501;48.214;11.350;2023-03-03T13:06:10;8.50;38.20
1025;DHT22;501;48.214;11.350;2023-03-03T13:08:50;8.90;37.80
1025;DHT22;501;48.214;11.350;2023-03-03T13:17:16;9.40;34.20
1025;DHT22;501;48.214;11.350;2023-03-03T13:20:04;9.50;34.70
1025;DHT22;501;48.214;11.350;2023-03-03T13:22:49;9.60;34.10
1025;DHT22;501;48.214;11.350;2023-03-03T13:28:20;9.50;33.40
1025;DHT22;501;48.214;11.350;2023-03-03T13:30:49;9.40;34.20
1025;DHT22;501;48.214;11.350;2023-03-03T13:33:29;9.50;34.70
1025;DHT22;501;48.214;11.350;2023-03-03T13:35:59;9.60;33.40
1025;DHT22;501;48.214;11.350;2023-03-03T13:38:34;9.70;33.60
1025;DHT22;501;48.214;11.350;2023-03-03T13:46:39;9.70;32.10
1025;DHT22;501;48.214;11.350;2023-03-03T13:54:58;10.70;33.20
1025;DHT22;501;48.214;11.350;2023-03-03T13:57:44;11.30;29.40
1025;DHT22;501;48.214;11.350;2023-03-03T14:00:15;11.90;30.30
1025;DHT22;501;48.214;11.350;2023-03-03T14:05:55;12.90;28.70
1025;DHT22;501;48.214;11.350;2023-03-03T14:08:28;13.40;28.10
1025;DHT22;501;48.214;11.350;2023-03-03T14:16:56;14.60;26.00
1025;DHT22;501;48.214;11.350;2023-03-03T14:19:43;15.00;25.20
1025;DHT22;501;48.214;11.350;2023-03-03T14:22:52;15.10;24.90
1025;DHT22;501;48.214;11.350;2023-03-03T14:25:19;15.20;23.60
1025;DHT22;501;48.214;11.350;2023-03-03T14:35:24;15.70;22.70
1025;DHT22;501;48.214;11.350;2023-03-03T14:38:05;15.70;21.80
1025;DHT22;501;48.214;11.350;2023-03-03T14:40:37;15.30;22.20
1025;DHT22;501;48.214;11.350;2023-03-03T14:43:35;15.00;23.00
1025;DHT22;501;48.214;11.350;2023-03-03T14:49:28;15.30;22.70
1025;DHT22;501;48.214;11.350;2023-03-03T14:54:38;15.60;22.30
1025;DHT22;501;48.214;11.350;2023-03-03T14:57:08;15.60;22.20
1025;DHT22;501;48.214;11.350;2023-03-03T14:59:36;15.70;22.00
1025;DHT22;501;48.214;11.350;2023-03-03T15:04:44;15.80;21.80
1025;DHT22;501;48.214;11.350;2023-03-03T15:07:35;15.70;22.40
1025;DHT22;501;48.214;11.350;2023-03-03T15:10:03;15.50;22.20
1025;DHT22;501;48.214;11.350;2023-03-03T15:29:07;14.50;23.10
1025;DHT22;501;48.214;11.350;2023-03-03T15:42:54;13.10;24.40
1025;DHT22;501;48.214;11.350;2023-03-03T15:45:49;12.60;25.20
1025;DHT22;501;48.214;11.350;2023-03-03T16:02:18;10.70;28.10
1025;DHT22;501;48.214;11.350;2023-03-03T16:05:12;10.50;28.40
1025;DHT22;501;48.214;11.350;2023-03-03T16:16:32;9.90;30.40
1025;DHT22;501;48.214;11.350;2023-03-03T16:24:29;9.60;31.50
1025;DHT22;501;48.214;11.350;2023-03-03T16:34:57;9.30;32.00
1025;DHT22;501;48.214;11.350;2023-03-03T16:37:39;9.20;32.40
1025;DHT22;501;48.214;11.350;2023-03-03T16:40:31;9.10;32.50
1025;DHT22;501;48.214;11.350;2023-03-03T16:43:31;9.10;33.20
1025;DHT22;501;48.214;11.350;2023-03-03T16:46:20;9.00;33.10
1025;DHT22;501;48.214;11.350;2023-03-03T16:48:56;8.90;33.00
1025;DHT22;501;48.214;11.350;2023-03-03T16:51:47;8.80;33.20
1025;DHT22;501;48.214;11.350;2023-03-03T16:54:38;8.70;34.10
1025;DHT22;501;48.214;11.350;2023-03-03T16:57:15;8.70;33.80
1025;DHT22;501;48.214;11.350;2023-03-03T17:10:55;8.20;35.00
1025;DHT22;501;48.214;11.350;2023-03-03T17:16:58;8.10;35.20
1025;DHT22;501;48.214;11.350;2023-03-03T17:28:07;7.70;36.10
1025;DHT22;501;48.214;11.350;2023-03-03T17:30:40;7.60;36.70
1025;DHT22;501;48.214;11.350;2023-03-03T17:43:38;7.30;36.90
1025;DHT22;501;48.214;11.350;2023-03-03T17:46:29;7.20;37.10
1025;DHT22;501;48.214;11.350;2023-03-03T17:52:15;7.00;37.50
1025;DHT22;501;48.214;11.350;2023-03-03T17:55:23;6.90;37.90
1025;DHT22;501;48.214;11.350;2023-03-03T18:10:08;6.50;39.00
1025;DHT22;501;48.214;11.350;2023-03-03T18:21:08;6.20;39.30
1025;DHT22;501;48.214;11.350;2023-03-03T18:26:04;6.00;39.40
1025;DHT22;501;48.214;11.350;2023-03-03T18:28:49;5.90;39.60
1025;DHT22;501;48.214;11.350;2023-03-03T18:31:25;5.80;39.90
1025;DHT22;501;48.214;11.350;2023-03-03T18:34:07;5.80;40.10
1025;DHT22;501;48.214;11.350;2023-03-03T18:36:36;5.70;40.40
1025;DHT22;501;48.214;11.350;2023-03-03T18:39:04;5.60;41.30
1025;DHT22;501;48.214;11.350;2023-03-03T18:41:32;5.60;41.40
1025;DHT22;501;48.214;11.350;2023-03-03T18:43:59;5.50;41.00
1025;DHT22;501;48.214;11.350;2023-03-03T18:49:00;5.40;41.20
1025;DHT22;501;48.214;11.350;2023-03-03T18:54:19;5.30;41.40
1025;DHT22;501;48.214;11.350;2023-03-03T19:05:03;5.00;41.90
1025;DHT22;501;48.214;11.350;2023-03-03T19:07:46;5.00;41.90
1025;DHT22;501;48.214;11.350;2023-03-03T19:12:52;4.80;41.90
1025;DHT22;501;48.214;11.350;2023-03-03T19:20:59;4.60;43.90
1025;DHT22;501;48.214;11.350;2023-03-03T19:28:58;4.50;43.10
1025;DHT22;501;48.214;11.350;2023-03-03T19:31:36;4.50;43.10
1025;DHT22;501;48.214;11.350;2023-03-03T19:34:23;4.40;43.40
1025;DHT22;501;48.214;11.350;2023-03-03T19:36:56;4.40;43.30
1025;DHT22;501;48.214;11.350;2023-03-03T19:47:56;4.10;43.50
1025;DHT22;501;48.214;11.350;2023-03-03T19:53:04;4.00;43.80
1025;DHT22;501;48.214;11.350;2023-03-03T19:55:58;4.00;43.90
1025;DHT22;501;48.214;11.350;2023-03-03T19:58:45;3.90;44.80
1025;DHT22;501;48.214;11.350;2023-03-03T20:01:25;3.80;45.60
1025;DHT22;501;48.214;11.350;2023-03-03T20:04:12;3.80;46.50
1025;DHT22;501;48.214;11.350;2023-03-03T20:06:51;3.70;46.80
1025;DHT22;501;48.214;11.350;2023-03-03T20:12:55;3.70;45.80
1025;DHT22;501;48.214;11.350;2023-03-03T20:15:31;3.60;45.20
1025;DHT22;501;48.214;11.350;2023-03-03T20:29:05;3.40;46.00
1025;DHT22;501;48.214;11.350;2023-03-03T20:31:50;3.40;46.10
1025;DHT22;501;48.214;11.350;2023-03-03T20:37:11;3.30;48.20
1025;DHT22;501;48.214;11.350;2023-03-03T20:39:52;3.30;48.40
1025;DHT22;501;48.214;11.350;2023-03-03T20:53:11;3.20;47.20
1025;DHT22;501;48.214;11.350;2023-03-03T20:56:02;3.20;47.50
1025;DHT22;501;48.214;11.350;2023-03-03T20:58:55;3.20;48.40
1025;DHT22;501;48.214;11.350;2023-03-03T21:01:48;3.10;48.80
1025;DHT22;501;48.214;11.350;2023-03-03T21:06:43;3.10;48.50
1025;DHT22;501;48.214;11.350;2023-03-03T21:11:46;3.10;47.60
1025;DHT22;501;48.214;11.350;2023-03-03T21:14:24;3.00;47.20
1025;DHT22;501;48.214;11.350;2023-03-03T21:16:58;3.00;47.10
1025;DHT22;501;48.214;11.350;2023-03-03T21:19:34;3.00;46.80
1025;DHT22;501;48.214;11.350;2023-03-03T21:22:01;2.90;46.90
1025;DHT22;501;48.214;11.350;2023-03-03T21:24:53;2.90;47.00
1025;DHT22;501;48.214;11.350;2023-03-03T21:27:25;2.90;46.90
1025;DHT22;501;48.214;11.350;2023-03-03T21:35:23;2.80;47.00
1025;DHT22;501;48.214;11.350;2023-03-03T21:37:56;2.70;47.50
1025;DHT22;501;48.214;11.350;2023-03-03T21:40:29;2.70;47.50
1025;DHT22;501;48.214;11.350;2023-03-03T21:42:57;2.70;47.30
1025;DHT22;501;48.214;11.350;2023-03-03T21:45:24;2.70;47.00
1025;DHT22;501;48.214;11.350;2023-03-03T21:47:51;2.60;46.90
1025;DHT22;501;48.214;11.350;2023-03-03T21:50:20;2.60;47.00
1025;DHT22;501;48.214;11.350;2023-03-03T21:52:46;2.60;46.90
1025;DHT22;501;48.214;11.350;2023-03-03T21:55:12;2.60;46.80
1025;DHT22;501;48.214;11.350;2023-03-03T21:57:38;2.60;47.00
1025;DHT22;501;48.214;11.350;2023-03-03T22:00:05;2.60;47.10
1025;DHT22;501;48.214;11.350;2023-03-03T22:02:31;2.50;47.10
1025;DHT22;501;48.214;11.350;2023-03-03T22:04:57;2.50;47.00
1025;DHT22;501;48.214;11.350;2023-03-03T22:07:22;2.50;46.90
1025;DHT22;501;48.214;11.350;2023-03-03T22:09:48;2.50;46.80
1025;DHT22;501;48.214;11.350;2023-03-03T22:12:14;2.50;47.00
1025;DHT22;501;48.214;11.350;2023-03-03T22:14:39;2.40;46.90
1025;DHT22;501;48.214;11.350;2023-03-03T22:17:05;2.40;47.00
1025;DHT22;501;48.214;11.350;2023-03-03T22:19:30;2.40;47.00
1025;DHT22;501;48.214;11.350;2023-03-03T22:21:58;2.40;47.40
1025;DHT22;501;48.214;11.350;2023-03-03T22:24:24;2.40;47.70
1025;DHT22;501;48.214;11.350;2023-03-03T22:26:49;2.40;47.50
1025;DHT22;501;48.214;11.350;2023-03-03T22:29:15;2.40;47.80
1025;DHT22;501;48.214;11.350;2023-03-03T22:31:41;2.40;47.60
1025;DHT22;501;48.214;11.350;2023-03-03T22:34:07;2.30;47.70
1025;DHT22;501;48.214;11.350;2023-03-03T22:36:32;2.30;47.40
1025;DHT22;501;48.214;11.350;2023-03-03T22:38:58;2.30;47.80
1025;DHT22;501;48.214;11.350;2023-03-03T22:41:25;2.30;47.60
1025;DHT22;501;48.214;11.350;2023-03-03T22:43:50;2.30;47.70
1025;DHT22;501;48.214;11.350;2023-03-03T22:46:16;2.30;47.80
1025;DHT22;501;48.214;11.350;2023-03-03T22:48:42;2.30;47.70
1025;DHT22;501;48.214;11.350;2023-03-03T22:51:07;2.30;47.60
1025;DHT22;501;48.214;11.350;2023-03-03T22:53:33;2.20;47.60
1025;DHT22;501;48.214;11.350;2023-03-03T22:55:58;2.20;47.80
1025;DHT22;501;48.214;11.350;2023-03-03T22:58:24;2.20;47.90
1025;DHT22;501;48.214;11.350;2023-03-03T23:00:51;2.20;47.70
1025;DHT22;501;48.214;11.350;2023-03-03T23:03:16;2.20;47.90
1025;DHT22;501;48.214;11.350;2023-03-03T23:05:43;2.20;48.10
1025;DHT22;501;48.214;11.350;2023-03-03T23:08:12;2.20;48.80
1025;DHT22;501;48.214;11.350;2023-03-03T23:10:38;2.10;49.00
1025;DHT22;501;48.214;11.350;2023-03-03T23:13:04;2.10;49.70
1025;DHT22;501;48.214;11.350;2023-03-03T23:15:30;2.10;50.20
1025;DHT22;501;48.214;11.350;2023-03-03T23:17:56;2.10;50.70
1025;DHT22;501;48.214;11.350;2023-03-03T23:20:24;2.10;51.40
1025;DHT22;501;48.214;11.350;2023-03-03T23:22:50;2.10;51.90
1025;DHT22;501;48.214;11.350;2023-03-03T23:25:17;2.10;52.90
1025;DHT22;501;48.214;11.350;2023-03-03T23:27:43;2.10;54.00
1025;DHT22;501;48.214;11.350;2023-03-03T23:30:10;2.10;55.20
1025;DHT22;501;48.214;11.350;2023-03-03T23:32:36;2.10;56.30
1025;DHT22;501;48.214;11.350;2023-03-03T23:35:02;2.20;57.10
1025;DHT22;501;48.214;11.350;2023-03-03T23:37:28;2.20;58.40
1025;DHT22;501;48.214;11.350;2023-03-03T23:39:54;2.20;59.40
1025;DHT22;501;48.214;11.350;2023-03-03T23:42:19;2.10;60.10